Time;durP1;ratioP1;P1;durP2;ratioP2;P2;SDS_P1;SDS_P2;PMS_P1;PMS_P2;Temp;Humidity;BMP_temperature;BMP_pressure;BME280_temperature;BME280_humidity;BME280_pressure;Samples;Min_cycle;Max_cycle;Signal;HPM_P1;HPM_P2
2023/06/11 00:04:35;;;;;;;15.40;11.27;;;;;;;;;;10433268;28;20037;-83
2023/06/11 00:09:36;;;;;;;15.80;11.00;;;;;;;;;;10441282;28;20045;-86
2023/06/11 00:14:37;;;;;;;14.48;11.32;;;;;;;;;;10438599;28;20078;-85
2023/06/11 00:19:40;;;;;;;14.48;11.40;;;;;;;;;;10445158;28;20044;-83
2023/06/11 00:24:41;;;;;;;13.90;11.15;;;;;;;;;;10445303;28;20436;-83
2023/06/11 00:29:42;;;;;;;14.55;10.68;;;;;;;;;;10427035;28;20029;-84
2023/06/11 00:34:43;;;;;;;15.75;12.18;;;;;;;;;;10431037;28;20029;-83
2023/06/11 00:39:44;;;;;;;14.55;11.38;;;;;;;;;;10444404;28;20398;-84
2023/06/11 00:44:47;;;;;;;16.05;11.82;;;;;;;;;;10445255;28;20021;-86
2023/06/11 00:49:48;;;;;;;14.80;10.57;;;;;;;;;;10442090;28;20017;-84
2023/06/11 00:54:49;;;;;;;16.70;11.85;;;;;;;;;;10439940;28;20032;-85
2023/06/11 00:59:51;;;;;;;17.92;13.57;;;;;;;;;;10436459;28;20036;-85
2023/06/11 01:04:57;;;;;;;19.65;13.95;;;;;;;;;;10443257;28;20112;-84
2023/06/11 01:09:58;;;;;;;19.58;14.05;;;;;;;;;;10414067;28;20049;-85
2023/06/11 01:15:00;;;;;;;22.58;15.63;;;;;;;;;;10426835;28;20025;-85
2023/06/11 01:20:13;;;;;;;20.58;16.00;;;;;;;;;;10442825;28;20057;-87
2023/06/11 01:25:25;;;;;;;24.02;15.52;;;;;;;;;;10442733;28;20041;-87
2023/06/11 01:30:28;;;;;;;20.17;15.32;;;;;;;;;;10419873;28;20112;-84
2023/06/11 01:35:30;;;;;;;18.55;14.50;;;;;;;;;;10419022;28;20022;-86
2023/06/11 01:40:31;;;;;;;22.30;16.15;;;;;;;;;;10436452;28;20029;-85
2023/06/11 01:45:33;;;;;;;25.40;17.30;;;;;;;;;;10439255;28;20047;-85
2023/06/11 01:50:34;;;;;;;24.92;18.25;;;;;;;;;;10431047;28;20032;-85
2023/06/11 01:55:36;;;;;;;28.02;19.42;;;;;;;;;;10424393;28;20029;-87
2023/06/11 02:00:37;;;;;;;23.67;17.40;;;;;;;;;;10451734;28;20025;-84
2023/06/11 02:05:38;;;;;;;27.00;19.70;;;;;;;;;;10420104;28;20033;-85
2023/06/11 02:10:39;;;;;;;26.92;19.95;;;;;;;;;;10431432;28;20041;-85
2023/06/11 02:15:40;;;;;;;29.23;18.38;;;;;;;;;;10444333;28;20048;-87
2023/06/11 02:20:41;;;;;;;25.38;18.40;;;;;;;;;;10425338;28;20033;-85
2023/06/11 02:25:43;;;;;;;24.17;18.25;;;;;;;;;;10432354;28;20033;-85
2023/06/11 02:30:44;;;;;;;23.00;17.10;;;;;;;;;;10430293;28;20039;-87
2023/06/11 02:35:45;;;;;;;26.77;18.67;;;;;;;;;;10430313;28;20129;-87
2023/06/11 02:40:46;;;;;;;26.25;18.83;;;;;;;;;;10430445;28;20021;-85
2023/06/11 02:45:47;;;;;;;25.60;17.67;;;;;;;;;;10426544;28;20472;-85
2023/06/11 02:50:48;;;;;;;24.15;17.40;;;;;;;;;;10413456;28;20083;-85
2023/06/11 02:55:49;;;;;;;27.02;19.15;;;;;;;;;;10429329;28;20033;-86
2023/06/11 03:00:50;;;;;;;26.27;20.38;;;;;;;;;;10449281;28;20155;-85
2023/06/11 03:05:51;;;;;;;26.70;20.42;;;;;;;;;;10435320;28;20035;-86
2023/06/11 03:10:52;;;;;;;28.05;20.40;;;;;;;;;;10443892;28;20041;-86
2023/06/11 03:15:55;;;;;;;28.08;19.95;;;;;;;;;;10430098;28;20106;-84
2023/06/11 03:20:56;;;;;;;28.42;20.25;;;;;;;;;;10421341;28;20098;-87
2023/06/11 03:25:57;;;;;;;31.88;20.80;;;;;;;;;;10447809;28;20449;-87
2023/06/11 03:30:58;;;;;;;25.17;18.27;;;;;;;;;;10427952;28;20027;-84
2023/06/11 03:35:59;;;;;;;23.35;17.95;;;;;;;;;;10447272;28;20372;-84
2023/06/11 03:41:00;;;;;;;27.23;19.20;;;;;;;;;;10429567;28;20028;-84
2023/06/11 03:46:02;;;;;;;26.38;18.13;;;;;;;;;;10445750;28;20522;-84
2023/06/11 03:51:03;;;;;;;21.52;17.10;;;;;;;;;;10429321;28;20163;-85
2023/06/11 03:56:04;;;;;;;22.92;17.13;;;;;;;;;;10435250;28;20021;-86
2023/06/11 04:01:05;;;;;;;20.88;16.25;;;;;;;;;;10421843;28;20032;-85
2023/06/11 04:06:06;;;;;;;21.23;16.20;;;;;;;;;;10436418;28;20102;-86
2023/06/11 04:11:08;;;;;;;21.33;16.30;;;;;;;;;;10446219;28;20047;-86
2023/06/11 04:16:09;;;;;;;20.20;16.05;;;;;;;;;;10426166;28;20024;-85
2023/06/11 04:21:10;;;;;;;19.38;15.02;;;;;;;;;;10426912;28;20078;-84
2023/06/11 04:26:15;;;;;;;21.80;15.73;;;;;;;;;;10429099;28;20034;-85
2023/06/11 04:31:16;;;;;;;20.10;14.97;;;;;;;;;;10423519;28;20108;-86
2023/06/11 04:36:18;;;;;;;21.55;14.77;;;;;;;;;;10446373;28;20139;-86
2023/06/11 04:41:23;;;;;;;21.25;15.85;;;;;;;;;;10444978;28;20044;-85
2023/06/11 04:46:24;;;;;;;19.42;13.93;;;;;;;;;;10423880;28;20582;-87
2023/06/11 04:51:28;;;;;;;19.35;14.65;;;;;;;;;;10433114;28;20025;-84
2023/06/11 04:56:29;;;;;;;19.75;15.25;;;;;;;;;;10444614;28;20491;-86
2023/06/11 05:01:32;;;;;;;19.63;13.77;;;;;;;;;;10425429;28;20029;-84
2023/06/11 05:06:33;;;;;;;15.15;12.90;;;;;;;;;;10444334;28;20031;-84
2023/06/11 05:11:34;;;;;;;15.43;13.38;;;;;;;;;;10438423;28;20049;-88
2023/06/11 05:16:35;;;;;;;15.10;11.70;;;;;;;;;;10438821;28;20029;-87
2023/06/11 05:21:37;;;;;;;15.68;11.75;;;;;;;;;;10404940;28;20064;-86
2023/06/11 05:26:38;;;;;;;14.70;11.55;;;;;;;;;;10443376;28;20477;-87
2023/06/11 05:31:39;;;;;;;14.60;11.32;;;;;;;;;;10432613;28;20024;-86
2023/06/11 05:36:42;;;;;;;16.45;11.85;;;;;;;;;;10419480;28;20024;-85
2023/06/11 05:41:43;;;;;;;17.23;12.63;;;;;;;;;;10452111;28;20641;-85
2023/06/11 05:46:44;;;;;;;16.13;11.60;;;;;;;;;;10429170;28;20036;-87
2023/06/11 05:51:45;;;;;;;15.95;11.70;;;;;;;;;;10433394;28;20376;-85
2023/06/11 05:56:46;;;;;;;14.20;10.80;;;;;;;;;;10446246;28;20021;-87
2023/06/11 06:01:47;;;;;;;15.70;11.02;;;;;;;;;;10436257;28;20073;-85
2023/06/11 06:06:48;;;;;;;14.07;10.25;;;;;;;;;;10450792;28;20017;-84
2023/06/11 06:11:49;;;;;;;17.30;11.95;;;;;;;;;;10450839;28;20044;-85
2023/06/11 06:16:50;;;;;;;12.73;10.63;;;;;;;;;;10426098;28;20021;-84
2023/06/11 06:21:51;;;;;;;12.73;10.38;;;;;;;;;;10441654;28;20510;-84
2023/06/11 06:26:56;;;;;;;12.20;9.48;;;;;;;;;;10439790;28;20036;-84
2023/06/11 06:31:57;;;;;;;12.73;9.70;;;;;;;;;;10432524;28;20029;-84
2023/06/11 06:36:58;;;;;;;10.68;8.30;;;;;;;;;;10428522;28;20078;-84
2023/06/11 06:41:59;;;;;;;10.15;8.32;;;;;;;;;;10447632;28;20056;-84
2023/06/11 06:47:00;;;;;;;14.18;8.68;;;;;;;;;;10443175;28;20045;-85
2023/06/11 06:52:01;;;;;;;13.25;8.73;;;;;;;;;;10445519;28;20021;-83
2023/06/11 06:57:02;;;;;;;12.75;8.65;;;;;;;;;;10444026;28;20371;-81
2023/06/11 07:02:03;;;;;;;12.43;8.20;;;;;;;;;;10447743;28;20033;-86
2023/06/11 07:07:05;;;;;;;10.75;8.00;;;;;;;;;;10441583;28;20438;-84
2023/06/11 07:12:06;;;;;;;9.00;7.22;;;;;;;;;;10428344;28;20041;-85
2023/06/11 07:17:07;;;;;;;9.55;7.32;;;;;;;;;;10435897;28;20473;-87
2023/06/11 07:22:08;;;;;;;11.65;7.88;;;;;;;;;;10447869;28;20028;-86
2023/06/11 07:27:10;;;;;;;12.68;7.78;;;;;;;;;;10430051;28;20037;-85
2023/06/11 07:32:11;;;;;;;9.43;7.75;;;;;;;;;;10446298;28;20087;-85
2023/06/11 07:37:12;;;;;;;10.35;7.43;;;;;;;;;;10448102;28;20128;-84
2023/06/11 07:42:13;;;;;;;9.48;7.63;;;;;;;;;;10434507;28;20100;-85
2023/06/11 07:47:14;;;;;;;10.77;7.78;;;;;;;;;;10423385;28;20037;-84
2023/06/11 07:52:15;;;;;;;10.73;6.63;;;;;;;;;;10447360;28;20461;-85
2023/06/11 07:57:16;;;;;;;8.57;6.65;;;;;;;;;;10445876;28;20053;-85
2023/06/11 08:02:17;;;;;;;9.20;6.75;;;;;;;;;;10414819;28;20174;-84
2023/06/11 08:07:18;;;;;;;8.80;6.45;;;;;;;;;;10446956;28;20037;-85
2023/06/11 08:12:20;;;;;;;9.35;7.05;;;;;;;;;;10444557;28;20057;-83
2023/06/11 08:17:21;;;;;;;10.48;6.40;;;;;;;;;;10444827;28;20029;-85
2023/06/11 08:22:22;;;;;;;8.13;6.43;;;;;;;;;;10446936;28;20435;-85
2023/06/11 08:27:23;;;;;;;7.20;6.00;;;;;;;;;;10434973;28;20028;-85
2023/06/11 08:32:25;;;;;;;9.52;6.45;;;;;;;;;;10431736;28;20476;-84
2023/06/11 08:37:26;;;;;;;10.02;6.70;;;;;;;;;;10445798;28;20025;-83
2023/06/11 08:42:28;;;;;;;6.60;5.65;;;;;;;;;;10432675;28;20029;-83
2023/06/11 08:47:32;;;;;;;9.00;6.05;;;;;;;;;;10414919;28;20124;-83
2023/06/11 08:52:35;;;;;;;6.75;5.63;;;;;;;;;;10436715;28;20017;-84
2023/06/11 08:57:36;;;;;;;8.82;5.68;;;;;;;;;;10432499;28;20143;-84
2023/06/11 09:02:38;;;;;;;11.27;6.10;;;;;;;;;;10438056;28;20033;-83
2023/06/11 09:07:47;;;;;;;7.57;5.55;;;;;;;;;;10439691;28;20017;-82
2023/06/11 09:12:48;;;;;;;7.55;5.63;;;;;;;;;;10440581;28;20426;-85
2023/06/11 09:17:49;;;;;;;9.20;6.07;;;;;;;;;;10451835;28;20041;-85
2023/06/11 09:22:51;;;;;;;8.65;5.32;;;;;;;;;;10434922;28;20083;-84
2023/06/11 09:27:52;;;;;;;11.40;4.95;;;;;;;;;;10442410;28;20033;-84
2023/06/11 09:32:53;;;;;;;7.25;5.00;;;;;;;;;;10424210;28;20033;-81
2023/06/11 09:37:54;;;;;;;6.07;5.10;;;;;;;;;;10438425;28;20758;-83
2023/06/11 09:42:55;;;;;;;6.45;4.82;;;;;;;;;;10422910;28;20043;-84
2023/06/11 09:47:56;;;;;;;7.82;5.03;;;;;;;;;;10421186;28;20029;-85
2023/06/11 09:52:59;;;;;;;5.55;4.35;;;;;;;;;;10440388;28;20546;-84
2023/06/11 09:58:00;;;;;;;7.78;5.32;;;;;;;;;;10446115;28;20516;-84
2023/06/11 10:03:01;;;;;;;7.18;5.10;;;;;;;;;;10451159;28;20036;-82
2023/06/11 10:08:05;;;;;;;9.00;5.55;;;;;;;;;;10430684;28;20035;-84
2023/06/11 10:13:06;;;;;;;5.78;4.75;;;;;;;;;;10447232;28;20178;-84
2023/06/11 10:18:14;;;;;;;9.65;4.78;;;;;;;;;;10425198;28;20031;-84
2023/06/11 10:23:20;;;;;;;5.13;4.60;;;;;;;;;;10418909;28;20120;-84
2023/06/11 10:28:23;;;;;;;7.75;4.80;;;;;;;;;;10441164;28;20021;-85
2023/06/11 10:33:35;;;;;;;5.63;4.82;;;;;;;;;;10424229;28;20028;-85
2023/06/11 10:38:39;;;;;;;12.57;5.30;;;;;;;;;;10413512;28;20037;-85
2023/06/11 10:43:40;;;;;;;6.63;4.97;;;;;;;;;;10440578;28;20025;-85
2023/06/11 10:48:51;;;;;;;8.15;5.20;;;;;;;;;;10439834;28;20047;-86
2023/06/11 10:53:58;;;;;;;5.25;4.53;;;;;;;;;;10428226;28;20021;-86
2023/06/11 10:58:59;;;;;;;5.97;4.97;;;;;;;;;;10447454;28;20579;-85
2023/06/11 11:04:01;;;;;;;7.82;4.68;;;;;;;;;;10436536;28;20422;-85
2023/06/11 11:09:03;;;;;;;6.53;4.38;;;;;;;;;;10422802;28;20050;-87
2023/06/11 11:14:07;;;;;;;9.30;4.78;;;;;;;;;;10408596;28;20036;-85
2023/06/11 11:19:11;;;;;;;5.20;4.20;;;;;;;;;;10407869;28;20035;-84
2023/06/11 11:24:12;;;;;;;7.97;4.73;;;;;;;;;;10429085;28;20522;-85
2023/06/11 11:29:14;;;;;;;8.48;4.88;;;;;;;;;;10428985;28;20028;-86
2023/06/11 11:34:15;;;;;;;7.88;5.05;;;;;;;;;;10423095;28;20083;-84
2023/06/11 11:39:16;;;;;;;5.75;4.60;;;;;;;;;;10438540;28;20043;-85
2023/06/11 11:44:17;;;;;;;5.78;4.20;;;;;;;;;;10446462;28;20048;-87
2023/06/11 11:49:18;;;;;;;7.95;4.93;;;;;;;;;;10440904;28;20464;-87
2023/06/11 11:54:20;;;;;;;5.10;3.90;;;;;;;;;;10416185;28;20025;-87
2023/06/11 11:59:21;;;;;;;5.63;4.38;;;;;;;;;;10435453;28;20688;-86
2023/06/11 12:04:22;;;;;;;7.20;4.55;;;;;;;;;;10416691;28;20036;-85
2023/06/11 12:09:23;;;;;;;9.65;4.78;;;;;;;;;;10442312;28;20060;-85
2023/06/11 12:14:24;;;;;;;6.38;4.30;;;;;;;;;;10419199;28;20502;-85
2023/06/11 12:19:28;;;;;;;4.68;3.83;;;;;;;;;;10436027;28;20368;-87
2023/06/11 12:24:29;;;;;;;6.57;4.20;;;;;;;;;;10415376;28;20346;-84
2023/06/11 12:29:30;;;;;;;7.68;4.88;;;;;;;;;;10414915;28;20025;-85
2023/06/11 12:34:31;;;;;;;6.00;5.10;;;;;;;;;;10431647;28;20159;-85
2023/06/11 12:39:32;;;;;;;6.30;5.00;;;;;;;;;;10428054;28;20021;-87
2023/06/11 12:44:33;;;;;;;6.15;4.97;;;;;;;;;;10436762;28;20040;-85
2023/06/11 12:49:35;;;;;;;7.05;4.30;;;;;;;;;;10433902;28;20021;-85
2023/06/11 12:54:36;;;;;;;7.32;4.45;;;;;;;;;;10444014;28;20032;-87
2023/06/11 12:59:37;;;;;;;9.27;4.50;;;;;;;;;;10432049;28;20483;-85
2023/06/11 13:04:38;;;;;;;7.95;4.78;;;;;;;;;;10427314;28;20037;-85
2023/06/11 13:09:39;;;;;;;8.98;4.47;;;;;;;;;;10432116;28;20502;-88
2023/06/11 13:14:40;;;;;;;4.75;3.55;;;;;;;;;;10439495;28;20040;-83
2023/06/11 13:19:41;;;;;;;6.28;4.47;;;;;;;;;;10418500;28;20036;-84
2023/06/11 13:24:42;;;;;;;7.45;4.05;;;;;;;;;;10442432;28;20037;-83
2023/06/11 13:29:43;;;;;;;6.65;4.07;;;;;;;;;;10427287;28;20031;-85
2023/06/11 13:34:44;;;;;;;6.40;4.40;;;;;;;;;;10432168;28;20025;-82
2023/06/11 13:39:45;;;;;;;5.60;3.63;;;;;;;;;;10425077;28;20112;-84
2023/06/11 13:44:46;;;;;;;6.28;3.85;;;;;;;;;;10440912;28;20589;-83
2023/06/11 13:49:47;;;;;;;5.57;3.90;;;;;;;;;;10424414;28;20025;-83
2023/06/11 13:54:48;;;;;;;7.25;4.28;;;;;;;;;;10431467;28;20384;-82
2023/06/11 13:59:49;;;;;;;5.85;3.95;;;;;;;;;;10451147;28;20028;-84
2023/06/11 14:04:52;;;;;;;6.28;4.72;;;;;;;;;;10451868;28;20094;-82
2023/06/11 14:09:54;;;;;;;4.97;4.18;;;;;;;;;;10451240;28;20052;-81
2023/06/11 14:14:57;;;;;;;5.68;4.20;;;;;;;;;;10437822;28;20026;-82
2023/06/11 14:19:58;;;;;;;4.38;3.63;;;;;;;;;;10451150;28;20028;-82
2023/06/11 14:24:59;;;;;;;4.35;3.95;;;;;;;;;;10450347;28;20037;-82
2023/06/11 14:30:00;;;;;;;7.88;3.78;;;;;;;;;;10437942;28;20087;-82
2023/06/11 14:35:01;;;;;;;5.78;4.07;;;;;;;;;;10450339;28;20021;-83
2023/06/11 14:40:02;;;;;;;6.25;4.00;;;;;;;;;;10441501;28;20124;-82
2023/06/11 14:45:06;;;;;;;5.35;3.92;;;;;;;;;;10434592;28;20029;-81
2023/06/11 14:50:07;;;;;;;4.57;4.07;;;;;;;;;;10435899;28;20380;-83
2023/06/11 14:55:08;;;;;;;4.32;3.70;;;;;;;;;;10443817;28;20377;-82
2023/06/11 15:00:10;;;;;;;6.53;3.88;;;;;;;;;;10434535;28;20141;-82
2023/06/11 15:05:11;;;;;;;5.22;4.28;;;;;;;;;;10429459;28;20029;-83
2023/06/11 15:15:51;;;;;;;6.00;3.90;;;;;;;;;;10437543;28;20016;-83
2023/06/11 15:20:53;;;;;;;4.22;3.83;;;;;;;;;;10434922;28;20017;-85
2023/06/11 15:25:54;;;;;;;4.88;3.42;;;;;;;;;;10448154;28;20108;-83
2023/06/11 15:30:56;;;;;;;6.93;3.80;;;;;;;;;;10448363;28;20503;-83
2023/06/11 15:35:57;;;;;;;5.40;3.60;;;;;;;;;;10447634;28;20490;-82
2023/06/11 15:40:58;;;;;;;5.15;3.30;;;;;;;;;;10447795;28;20029;-82
2023/06/11 15:45:59;;;;;;;5.38;4.07;;;;;;;;;;10446954;28;20048;-84
2023/06/11 15:51:00;;;;;;;6.28;3.60;;;;;;;;;;10446879;28;20033;-84
2023/06/11 15:56:01;;;;;;;7.30;4.53;;;;;;;;;;10447360;28;20035;-82
2023/06/11 16:01:02;;;;;;;5.10;3.67;;;;;;;;;;10446830;28;20484;-84
2023/06/11 16:06:03;;;;;;;6.43;4.13;;;;;;;;;;10426287;28;20069;-87
2023/06/11 16:11:04;;;;;;;6.45;4.00;;;;;;;;;;10438802;28;20041;-82
2023/06/11 16:16:06;;;;;;;6.53;4.45;;;;;;;;;;10418543;28;20021;-83
2023/06/11 16:21:07;;;;;;;7.95;4.32;;;;;;;;;;10433928;28;20443;-85
2023/06/11 16:26:08;;;;;;;4.63;3.28;;;;;;;;;;10444108;28;20033;-86
2023/06/11 16:31:09;;;;;;;4.43;3.75;;;;;;;;;;10444076;28;20037;-83
2023/06/11 16:36:10;;;;;;;4.35;3.78;;;;;;;;;;10423886;28;20029;-83
2023/06/11 16:41:12;;;;;;;5.13;4.22;;;;;;;;;;10418876;28;20743;-83
2023/06/11 16:46:13;;;;;;;4.35;3.55;;;;;;;;;;10437077;28;20033;-83
2023/06/11 16:51:14;;;;;;;6.80;4.30;;;;;;;;;;10437667;28;20040;-83
2023/06/11 16:56:18;;;;;;;6.68;4.00;;;;;;;;;;10437386;28;20031;-82
2023/06/11 17:01:19;;;;;;;7.75;3.83;;;;;;;;;;10437908;28;20029;-83
2023/06/11 17:06:20;;;;;;;4.55;3.80;;;;;;;;;;10434531;28;20036;-82
2023/06/11 17:11:21;;;;;;;8.00;4.50;;;;;;;;;;10429111;28;20330;-82
2023/06/11 17:16:22;;;;;;;6.45;3.78;;;;;;;;;;10437135;28;20024;-82
2023/06/11 17:21:23;;;;;;;4.85;3.70;;;;;;;;;;10441800;28;20025;-82
2023/06/11 17:26:24;;;;;;;7.32;3.70;;;;;;;;;;10435811;28;20032;-83
2023/06/11 17:31:25;;;;;;;4.35;3.70;;;;;;;;;;10452645;28;20040;-87
2023/06/11 17:36:26;;;;;;;4.70;3.80;;;;;;;;;;10453293;28;20025;-82
2023/06/11 17:41:27;;;;;;;6.22;3.83;;;;;;;;;;10432877;28;20094;-83
2023/06/11 17:46:28;;;;;;;6.57;4.25;;;;;;;;;;10430539;28;20064;-84
2023/06/11 17:51:29;;;;;;;5.72;4.00;;;;;;;;;;10449621;28;20023;-83
2023/06/11 17:56:30;;;;;;;4.97;4.03;;;;;;;;;;10447957;28;20025;-85
2023/06/11 18:01:31;;;;;;;5.45;3.83;;;;;;;;;;10432620;28;20028;-85
2023/06/11 18:06:33;;;;;;;5.18;3.80;;;;;;;;;;10428216;28;20518;-83
2023/06/11 18:11:35;;;;;;;5.43;3.58;;;;;;;;;;10449345;28;20114;-85
2023/06/11 18:16:36;;;;;;;4.63;3.40;;;;;;;;;;10444363;28;20060;-82
2023/06/11 18:21:37;;;;;;;7.80;3.75;;;;;;;;;;10440585;28;20087;-83
2023/06/11 18:26:39;;;;;;;4.55;3.25;;;;;;;;;;10416300;28;20043;-83
2023/06/11 18:31:40;;;;;;;4.65;3.72;;;;;;;;;;10438664;28;20088;-83
2023/06/11 18:36:41;;;;;;;6.03;4.22;;;;;;;;;;10436077;28;20086;-84
2023/06/11 18:41:42;;;;;;;5.63;3.42;;;;;;;;;;10432304;28;20024;-82
2023/06/11 18:46:44;;;;;;;6.85;3.80;;;;;;;;;;10436093;28;20028;-83
2023/06/11 18:51:45;;;;;;;6.00;4.18;;;;;;;;;;10443867;28;20028;-84
2023/06/11 18:56:46;;;;;;;5.45;3.63;;;;;;;;;;10425685;28;20031;-85
2023/06/11 19:01:47;;;;;;;7.00;4.32;;;;;;;;;;10443049;28;20023;-84
2023/06/11 19:06:49;;;;;;;5.68;4.40;;;;;;;;;;10430314;28;20064;-82
2023/06/11 19:11:50;;;;;;;5.50;3.80;;;;;;;;;;10439878;28;20494;-83
2023/06/11 19:16:52;;;;;;;8.68;4.50;;;;;;;;;;10433134;28;20033;-85
2023/06/11 19:21:54;;;;;;;6.60;4.30;;;;;;;;;;10427433;28;20064;-83
2023/06/11 19:26:55;;;;;;;5.78;4.18;;;;;;;;;;10422074;28;20041;-82
2023/06/11 19:31:56;;;;;;;5.60;4.28;;;;;;;;;;10427639;28;20029;-83
2023/06/11 19:36:57;;;;;;;7.72;4.15;;;;;;;;;;10415683;28;20488;-82
2023/06/11 19:41:58;;;;;;;5.20;4.00;;;;;;;;;;10436635;28;20036;-84
2023/06/11 19:47:02;;;;;;;6.63;4.63;;;;;;;;;;10421189;28;20041;-83
2023/06/11 19:52:03;;;;;;;5.13;4.13;;;;;;;;;;10430642;28;20530;-84
2023/06/11 19:57:05;;;;;;;8.77;4.75;;;;;;;;;;10407854;28;20017;-84
2023/06/11 20:02:06;;;;;;;5.90;4.60;;;;;;;;;;10416931;28;20685;-85
2023/06/11 20:07:26;;;;;;;6.57;4.68;;;;;;;;;;10412374;28;20040;-84
2023/06/11 20:12:28;;;;;;;5.35;4.15;;;;;;;;;;10412893;28;20088;-85
2023/06/11 20:17:29;;;;;;;4.93;4.40;;;;;;;;;;10440653;28;20017;-85
2023/06/11 20:22:31;;;;;;;7.35;4.60;;;;;;;;;;10433259;28;20181;-83
2023/06/11 20:27:32;;;;;;;7.13;4.65;;;;;;;;;;10437554;28;20388;-83
2023/06/11 20:32:33;;;;;;;8.82;4.97;;;;;;;;;;10432074;28;20480;-85
2023/06/11 20:37:34;;;;;;;6.45;4.93;;;;;;;;;;10444014;28;20029;-85
2023/06/11 20:42:36;;;;;;;8.85;5.60;;;;;;;;;;10421078;28;20029;-84
2023/06/11 20:47:37;;;;;;;8.90;5.88;;;;;;;;;;10418519;28;20547;-85
2023/06/11 20:52:38;;;;;;;11.43;6.35;;;;;;;;;;10427606;28;20037;-84
2023/06/11 20:57:39;;;;;;;11.75;5.72;;;;;;;;;;10404931;28;20033;-84
2023/06/11 21:02:40;;;;;;;10.45;5.78;;;;;;;;;;10429577;28;20040;-86
2023/06/11 21:07:41;;;;;;;9.13;5.60;;;;;;;;;;10420997;28;20613;-85
2023/06/11 21:12:48;;;;;;;8.18;5.78;;;;;;;;;;10421788;28;20049;-84
2023/06/11 21:17:50;;;;;;;9.15;6.20;;;;;;;;;;10423191;28;20622;-83
2023/06/11 21:22:51;;;;;;;7.40;5.00;;;;;;;;;;10398609;28;20022;-83
2023/06/11 21:27:52;;;;;;;8.07;5.25;;;;;;;;;;10437473;28;20033;-83
2023/06/11 21:32:53;;;;;;;9.73;5.40;;;;;;;;;;10416194;28;20457;-84
2023/06/11 21:37:54;;;;;;;8.40;5.47;;;;;;;;;;10445944;28;20036;-83
2023/06/11 21:42:55;;;;;;;8.07;5.15;;;;;;;;;;10437740;28;20026;-83
2023/06/11 21:47:56;;;;;;;7.93;5.07;;;;;;;;;;10428368;28;20396;-84
2023/06/11 21:52:57;;;;;;;6.10;5.32;;;;;;;;;;10437189;28;20029;-84
2023/06/11 21:58:03;;;;;;;6.10;5.05;;;;;;;;;;10442825;28;20037;-84
2023/06/11 22:03:05;;;;;;;5.97;4.88;;;;;;;;;;10430698;28;20071;-84
2023/06/11 22:08:07;;;;;;;6.47;4.50;;;;;;;;;;10433722;28;20044;-84
2023/06/11 22:13:08;;;;;;;7.18;5.35;;;;;;;;;;10432030;28;20430;-84
2023/06/11 22:18:08;;;;;;;9.95;5.55;;;;;;;;;;10423774;28;20025;-83
2023/06/11 22:23:10;;;;;;;7.63;5.35;;;;;;;;;;10418403;28;20027;-84
2023/06/11 22:28:11;;;;;;;7.13;5.07;;;;;;;;;;10437379;28;20029;-84
2023/06/11 22:33:12;;;;;;;7.28;4.95;;;;;;;;;;10436718;28;20039;-83
2023/06/11 22:38:13;;;;;;;8.50;5.95;;;;;;;;;;10424839;28;20376;-83
2023/06/11 22:43:14;;;;;;;7.70;5.25;;;;;;;;;;10411047;28;20043;-83
2023/06/11 22:48:16;;;;;;;7.93;5.10;;;;;;;;;;10442568;28;20044;-83
2023/06/11 22:53:17;;;;;;;9.07;5.18;;;;;;;;;;10421763;28;20028;-84
2023/06/11 22:58:18;;;;;;;9.13;5.97;;;;;;;;;;10405329;28;20107;-84
2023/06/11 23:03:19;;;;;;;8.13;5.88;;;;;;;;;;10441893;28;20025;-84
2023/06/11 23:08:20;;;;;;;7.18;5.10;;;;;;;;;;10441719;28;20029;-84
2023/06/11 23:13:21;;;;;;;8.30;5.82;;;;;;;;;;10411446;28;20481;-83
2023/06/11 23:18:23;;;;;;;7.60;5.57;;;;;;;;;;10416679;28;20032;-84
2023/06/11 23:23:25;;;;;;;8.80;5.72;;;;;;;;;;10418421;28;20148;-84
2023/06/11 23:28:27;;;;;;;7.60;6.45;;;;;;;;;;10443964;28;20037;-86
2023/06/11 23:33:30;;;;;;;9.23;5.60;;;;;;;;;;10434125;28;20013;-84
2023/06/11 23:38:31;;;;;;;8.80;6.25;;;;;;;;;;10413324;28;20040;-82
2023/06/11 23:43:32;;;;;;;12.63;6.18;;;;;;;;;;10418093;28;20045;-85
2023/06/11 23:48:33;;;;;;;8.90;6.03;;;;;;;;;;10439959;28;20029;-83
2023/06/11 23:53:35;;;;;;;11.27;6.25;;;;;;;;;;10444659;28;20484;-85
2023/06/11 23:58:36;;;;;;;12.23;6.95;;;;;;;;;;10429131;28;20074;-85
